Isla Nueva, Argentina
Current Conditions -  °F | °C
As of 12:00 PM on Wednesday 26 Nov 2014 (Local Time) from SAWH Reporting Station
Scattered Clouds Scattered Clouds  
Wind Chill: 38°   Ceiling: Unl
Heat Index: 46°   Visibility: 6mi
Dew Point: 36°   Wind: 24mph
Humidity: 66%   Direction: 250°WSW
Pressure: 29.56"   Gusts: 36mph
Location:  55.25°S, 66.49°W
Report Text: SAWH 261500Z 25021G31KT 9999 FEW027 SCT040 08/02 Q1001
Loading
Personal Weather Stations






























Interactive Weather Map New forecast layout! Learn more

10-Day Weather Forecast

Advertisements
Track Severe Weather on mobile